createdAt,value
2022-10-13T00:00:48.186Z,9.98
2022-10-13T00:01:51.188Z,9.18
2022-10-13T00:02:54.699Z,8.82
2022-10-13T00:03:57.658Z,9.90
2022-10-13T00:05:00.505Z,9.20
2022-10-13T00:06:06.467Z,9.20
2022-10-13T00:07:09.458Z,9.60
2022-10-13T00:08:21.079Z,10.45
2022-10-13T00:09:23.902Z,9.10
2022-10-13T00:10:27.555Z,9.43
2022-10-13T00:11:31.094Z,9.48
2022-10-13T00:12:40.362Z,10.55
2022-10-13T00:13:44.580Z,8.73
2022-10-13T00:14:47.461Z,9.00
2022-10-13T00:15:50.300Z,8.90
2022-10-13T00:16:54.376Z,8.93
2022-10-13T00:17:57.304Z,8.20
2022-10-13T00:19:00.450Z,9.73
2022-10-13T00:20:05.198Z,10.02
2022-10-13T00:21:10.476Z,9.30
2022-10-13T00:22:13.425Z,9.68
2022-10-13T00:23:16.882Z,9.32
2022-10-13T00:24:19.746Z,10.20
2022-10-13T00:25:22.530Z,9.23
2022-10-13T00:26:26.596Z,10.18
2022-10-13T00:27:29.817Z,9.80
2022-10-13T00:28:33.522Z,9.90
2022-10-13T00:29:36.290Z,10.70
2022-10-13T00:30:40.043Z,9.30
2022-10-13T00:31:42.840Z,9.55
2022-10-13T00:32:45.729Z,9.63
2022-10-13T00:33:53.053Z,10.15
2022-10-13T00:34:57.947Z,9.30
2022-10-13T00:36:00.916Z,9.02
2022-10-13T00:37:04.943Z,9.65
2022-10-13T00:38:07.895Z,10.07
2022-10-13T00:39:10.744Z,9.50
2022-10-13T00:40:13.537Z,9.93
2022-10-13T00:41:16.642Z,9.75
2022-10-13T00:42:20.259Z,10.32
2022-10-13T00:43:47.860Z,9.68
2022-10-13T00:45:02.433Z,9.43
2022-10-13T00:46:05.918Z,9.15
2022-10-13T00:47:09.612Z,8.82
2022-10-13T00:48:13.388Z,10.15
2022-10-13T00:49:16.321Z,9.35
2022-10-13T00:50:24.188Z,10.65
2022-10-13T00:51:30.645Z,10.25
2022-10-13T00:52:34.317Z,9.90
2022-10-13T00:53:39.330Z,9.48
2022-10-13T00:54:42.481Z,9.13
2022-10-13T00:55:47.255Z,9.23
2022-10-13T00:56:51.838Z,9.98
2022-10-13T00:57:56.377Z,9.85
2022-10-13T00:59:01.635Z,9.27
2022-10-13T01:00:05.286Z,9.80
2022-10-13T01:01:08.617Z,9.05
2022-10-13T01:02:11.674Z,10.25
2022-10-13T01:03:15.166Z,9.63
2022-10-13T01:04:23.218Z,8.45
2022-10-13T01:05:26.298Z,9.45
2022-10-13T01:06:30.181Z,9.38
2022-10-13T01:07:34.179Z,9.63
2022-10-13T01:08:37.168Z,9.45
2022-10-13T01:09:42.709Z,9.20
2022-10-13T01:11:07.105Z,9.60
2022-10-13T01:12:28.694Z,9.52
2022-10-13T01:13:40.417Z,9.10
2022-10-13T01:14:58.271Z,8.77
2022-10-13T01:16:31.068Z,8.63
2022-10-13T01:17:58.719Z,8.82
2022-10-13T01:19:09.166Z,8.48
2022-10-13T01:20:30.576Z,9.55
2022-10-13T01:21:46.839Z,9.63
2022-10-13T01:23:38.276Z,8.65
2022-10-13T01:25:03.348Z,7.93
2022-10-13T01:26:44.026Z,8.70
2022-10-13T01:28:09.169Z,8.18
2022-10-13T01:29:31.977Z,7.87
2022-10-13T01:30:48.786Z,8.30
2022-10-13T01:32:12.497Z,9.05
2022-10-13T01:33:34.923Z,8.18
2022-10-13T01:35:09.824Z,8.27
2022-10-13T01:36:28.799Z,8.10
2022-10-13T01:37:49.247Z,8.25
2022-10-13T01:39:03.748Z,8.95
2022-10-13T01:40:28.100Z,8.60
2022-10-13T01:41:39.198Z,8.20
2022-10-13T01:42:50.942Z,9.10
2022-10-13T01:44:21.330Z,8.93
2022-10-13T01:45:31.093Z,8.38
2022-10-13T01:46:37.850Z,7.62
2022-10-13T01:47:42.065Z,8.60
2022-10-13T01:48:46.470Z,8.95
2022-10-13T01:49:51.859Z,8.70
2022-10-13T01:50:57.098Z,8.55
2022-10-13T01:52:07.980Z,8.20
2022-10-13T01:53:12.726Z,8.30
2022-10-13T01:54:15.857Z,8.00
2022-10-13T01:55:19.124Z,8.02
2022-10-13T01:56:23.015Z,8.57
2022-10-13T01:57:32.580Z,8.57
2022-10-13T01:58:37.853Z,7.90
2022-10-13T01:59:40.648Z,8.05
2022-10-13T02:00:53.746Z,8.05
2022-10-13T02:02:19.623Z,8.65
2022-10-13T02:03:34.571Z,8.20
2022-10-13T02:04:56.068Z,8.38
2022-10-13T02:06:30.831Z,7.87
2022-10-13T02:07:53.667Z,8.23
2022-10-13T02:09:05.693Z,8.10
2022-10-13T02:10:27.790Z,7.65
2022-10-13T02:11:31.079Z,8.15
2022-10-13T02:12:48.527Z,8.10
2022-10-13T02:14:16.696Z,7.65
2022-10-13T02:15:26.382Z,7.47
2022-10-13T02:16:35.334Z,7.75
2022-10-13T02:17:38.767Z,7.80
2022-10-13T02:18:41.984Z,7.93
2022-10-13T02:19:45.466Z,7.87
2022-10-13T02:20:49.382Z,8.27
2022-10-13T02:21:53.584Z,8.25
2022-10-13T02:23:01.611Z,9.43
2022-10-13T02:24:05.950Z,9.88
2022-10-13T02:25:09.536Z,9.25
2022-10-13T02:26:14.333Z,10.02
2022-10-13T02:27:17.255Z,8.60
2022-10-13T02:28:20.482Z,9.57
2022-10-13T02:29:24.090Z,9.93
2022-10-13T02:30:30.205Z,10.18
2022-10-13T02:31:33.013Z,11.15
2022-10-13T02:32:36.011Z,10.52
2022-10-13T02:33:39.062Z,10.27
2022-10-13T02:34:41.855Z,10.75
2022-10-13T02:35:45.341Z,10.25
2022-10-13T02:36:50.254Z,10.85
2022-10-13T02:37:53.096Z,11.65
2022-10-13T02:38:59.243Z,11.80
2022-10-13T02:40:02.186Z,11.68
2022-10-13T02:41:05.300Z,11.23
2022-10-13T02:42:08.221Z,11.93
2022-10-13T02:43:11.050Z,12.95
2022-10-13T02:44:13.896Z,12.07
2022-10-13T02:45:17.131Z,11.98
2022-10-13T02:46:19.929Z,12.10
2022-10-13T02:47:23.055Z,12.07
2022-10-13T02:48:26.135Z,11.88
2022-10-13T02:49:28.985Z,11.90
2022-10-13T02:50:32.169Z,13.40
2022-10-13T02:51:39.894Z,12.35
2022-10-13T02:52:43.388Z,12.70
2022-10-13T02:53:46.880Z,12.25
2022-10-13T02:54:49.793Z,12.75
2022-10-13T02:55:52.627Z,14.00
2022-10-13T02:56:55.562Z,12.93
2022-10-13T02:57:58.501Z,13.43
2022-10-13T02:59:01.420Z,13.40
2022-10-13T03:00:06.291Z,13.98
2022-10-13T03:01:13.461Z,14.23
2022-10-13T03:02:17.242Z,12.52
2022-10-13T03:03:20.254Z,14.23
2022-10-13T03:04:23.412Z,13.68
2022-10-13T03:05:26.294Z,14.15
2022-10-13T03:06:29.171Z,12.95
2022-10-13T03:07:33.099Z,13.82
2022-10-13T03:08:36.613Z,13.77
2022-10-13T03:09:39.472Z,12.23
2022-10-13T03:10:42.408Z,13.85
2022-10-13T03:11:45.175Z,13.93
2022-10-13T03:12:48.176Z,13.20
2022-10-13T03:13:51.214Z,13.20
2022-10-13T03:14:54.122Z,13.13
2022-10-13T03:15:57.130Z,12.75
2022-10-13T03:17:00.029Z,12.57
2022-10-13T03:18:02.796Z,12.30
2022-10-13T03:19:05.573Z,13.10
2022-10-13T03:20:09.095Z,11.77
2022-10-13T03:21:12.127Z,12.43
2022-10-13T03:22:19.555Z,12.13
2022-10-13T03:23:22.470Z,11.77
2022-10-13T03:24:25.334Z,11.07
2022-10-13T03:25:28.589Z,11.15
2022-10-13T03:26:31.990Z,11.73
2022-10-13T03:27:35.186Z,11.57
2022-10-13T03:28:38.124Z,13.15
2022-10-13T03:29:40.875Z,12.15
2022-10-13T03:30:43.856Z,11.63
2022-10-13T03:31:47.021Z,12.07
2022-10-13T03:32:49.855Z,11.98
2022-10-13T03:33:52.693Z,12.45
2022-10-13T03:34:55.625Z,12.98
2022-10-13T03:36:00.727Z,12.10
2022-10-13T03:37:03.664Z,11.00
2022-10-13T03:38:06.736Z,11.48
2022-10-13T03:39:09.610Z,12.40
2022-10-13T03:40:12.895Z,11.60
2022-10-13T03:41:18.788Z,12.18
2022-10-13T03:42:21.984Z,11.55
2022-10-13T03:43:25.420Z,11.95
2022-10-13T03:44:28.447Z,11.80
2022-10-13T03:45:31.613Z,13.38
2022-10-13T03:46:34.815Z,13.23
2022-10-13T03:47:38.334Z,12.85
2022-10-13T03:48:42.013Z,13.07
2022-10-13T03:49:44.711Z,12.13
2022-10-13T03:50:47.595Z,12.30
2022-10-13T03:51:50.456Z,12.70
2022-10-13T03:52:53.461Z,12.30
2022-10-13T03:53:56.378Z,12.15
2022-10-13T03:54:59.291Z,12.55
2022-10-13T03:56:02.051Z,11.48
2022-10-13T03:57:04.818Z,12.50
2022-10-13T03:58:11.298Z,11.73
2022-10-13T03:59:16.985Z,11.90
2022-10-13T04:00:20.342Z,12.32
2022-10-13T04:01:25.490Z,11.68
2022-10-13T04:02:28.455Z,12.05
2022-10-13T04:03:32.134Z,11.88
2022-10-13T04:04:35.615Z,12.05
2022-10-13T04:05:38.528Z,12.82
2022-10-13T04:06:41.576Z,12.98
2022-10-13T04:07:44.451Z,13.32
2022-10-13T04:08:47.707Z,13.05
2022-10-13T04:09:50.660Z,12.98
2022-10-13T04:11:07.716Z,13.32
2022-10-13T04:12:10.671Z,13.57
2022-10-13T04:13:13.657Z,13.75
2022-10-13T04:14:16.539Z,12.98
2022-10-13T04:15:19.415Z,13.13
2022-10-13T04:16:24.953Z,12.45
2022-10-13T04:17:27.715Z,12.50
2022-10-13T04:18:30.753Z,13.18
2022-10-13T04:19:33.937Z,13.30
2022-10-13T04:20:39.392Z,13.05
2022-10-13T04:21:43.278Z,13.45
2022-10-13T04:22:46.386Z,12.40
2022-10-13T04:23:49.250Z,12.27
2022-10-13T04:24:52.093Z,13.07
2022-10-13T04:25:55.017Z,12.68
2022-10-13T04:26:58.134Z,13.18
2022-10-13T04:28:01.050Z,13.05
2022-10-13T04:29:05.949Z,13.62
2022-10-13T04:30:12.432Z,14.27
2022-10-13T04:31:16.475Z,13.32
2022-10-13T04:32:19.489Z,12.85
2022-10-13T04:33:26.305Z,13.05
2022-10-13T04:34:29.089Z,12.93
2022-10-13T04:35:32.265Z,12.63
2022-10-13T04:36:35.340Z,12.13
2022-10-13T04:37:41.621Z,12.68
2022-10-13T04:38:48.154Z,12.95
2022-10-13T04:39:51.183Z,11.48
2022-10-13T04:40:53.963Z,12.43
2022-10-13T04:41:56.988Z,13.68
2022-10-13T04:43:00.107Z,12.30
2022-10-13T04:44:02.907Z,13.07
2022-10-13T04:45:06.292Z,12.93
2022-10-13T04:46:13.945Z,12.77
2022-10-13T04:47:16.825Z,12.18
2022-10-13T04:48:19.649Z,11.77
2022-10-13T04:49:22.797Z,13.18
2022-10-13T04:50:25.656Z,11.52
2022-10-13T04:51:28.467Z,12.25
2022-10-13T04:52:31.239Z,12.82
2022-10-13T04:53:34.475Z,12.30
2022-10-13T04:54:37.434Z,12.35
2022-10-13T04:55:40.408Z,12.57
2022-10-13T04:56:46.232Z,12.40
2022-10-13T04:57:49.162Z,12.18
2022-10-13T04:58:52.271Z,12.02
2022-10-13T04:59:55.104Z,13.10
2022-10-13T05:00:58.593Z,12.80
2022-10-13T05:02:03.755Z,12.15
2022-10-13T05:03:06.516Z,13.68
2022-10-13T05:04:10.954Z,12.00
2022-10-13T05:05:17.023Z,12.48
2022-10-13T05:06:23.737Z,13.00
2022-10-13T05:07:26.761Z,13.00
2022-10-13T05:08:29.821Z,11.65
2022-10-13T05:09:32.840Z,12.20
2022-10-13T05:10:35.631Z,12.40
2022-10-13T05:11:38.364Z,12.52
2022-10-13T05:12:41.114Z,12.63
2022-10-13T05:13:44.110Z,12.23
2022-10-13T05:14:46.811Z,12.77
2022-10-13T05:15:49.766Z,12.70
2022-10-13T05:16:52.515Z,12.07
2022-10-13T05:17:55.412Z,11.60
2022-10-13T05:18:58.177Z,11.70
2022-10-13T05:20:01.005Z,12.25
2022-10-13T05:21:12.495Z,11.95
2022-10-13T05:22:15.416Z,12.43
2022-10-13T05:23:18.430Z,12.27
2022-10-13T05:24:31.214Z,13.07
2022-10-13T05:25:38.159Z,12.70
2022-10-13T05:26:41.168Z,12.32
2022-10-13T05:27:46.505Z,12.63
2022-10-13T05:28:49.631Z,11.43
2022-10-13T05:29:52.545Z,12.10
2022-10-13T05:30:55.299Z,11.50
2022-10-13T05:31:58.032Z,12.00
2022-10-13T05:33:01.217Z,12.23
2022-10-13T05:34:04.270Z,11.23
2022-10-13T05:35:07.414Z,11.93
2022-10-13T05:36:31.614Z,11.00
2022-10-13T05:37:34.357Z,10.63
2022-10-13T05:38:37.238Z,10.18
2022-10-13T05:39:40.040Z,9.98
2022-10-13T05:40:42.953Z,10.10
2022-10-13T05:41:45.836Z,9.38
2022-10-13T05:42:54.288Z,8.98
2022-10-13T05:44:00.145Z,8.15
2022-10-13T05:45:03.224Z,8.20
2022-10-13T05:46:06.779Z,8.25
2022-10-13T05:47:09.689Z,8.30
2022-10-13T05:48:12.648Z,8.70
2022-10-13T05:49:16.068Z,8.20
2022-10-13T05:50:19.379Z,8.02
2022-10-13T05:51:31.015Z,7.68
2022-10-13T05:53:41.461Z,6.65
2022-10-13T05:54:50.589Z,6.53
2022-10-13T05:55:57.412Z,6.20
2022-10-13T05:57:09.171Z,6.30
2022-10-13T05:58:12.253Z,6.60
2022-10-13T05:59:17.999Z,6.55
2022-10-13T06:00:21.037Z,6.55
2022-10-13T06:01:27.819Z,5.95
2022-10-13T06:02:57.756Z,6.95
2022-10-13T06:04:05.960Z,6.00
2022-10-13T06:05:15.030Z,5.62
2022-10-13T06:06:18.122Z,5.75
2022-10-13T06:07:20.997Z,5.82
2022-10-13T06:08:23.995Z,5.68
2022-10-13T06:09:34.990Z,6.15
2022-10-13T06:10:38.446Z,5.82
2022-10-13T06:11:41.392Z,5.93
2022-10-13T06:12:44.329Z,5.82
2022-10-13T06:13:47.165Z,6.72
2022-10-13T06:14:50.060Z,5.82
2022-10-13T06:15:52.888Z,6.18
2022-10-13T06:16:55.664Z,6.40
2022-10-13T06:17:58.699Z,6.15
2022-10-13T06:19:01.559Z,6.60
2022-10-13T06:20:06.442Z,6.50
2022-10-13T06:21:09.362Z,6.55
2022-10-13T06:22:12.382Z,6.75
2022-10-13T06:23:15.258Z,6.65
2022-10-13T06:24:18.201Z,6.18
2022-10-13T06:25:21.046Z,6.53
2022-10-13T06:26:23.912Z,6.50
2022-10-13T06:27:27.160Z,6.43
2022-10-13T06:28:29.877Z,5.87
2022-10-13T06:29:33.709Z,7.07
2022-10-13T06:30:38.604Z,6.60
2022-10-13T06:31:41.542Z,6.75
2022-10-13T06:32:44.377Z,6.65
2022-10-13T06:33:47.238Z,7.25
2022-10-13T06:34:50.101Z,6.90
2022-10-13T06:35:53.495Z,6.65
2022-10-13T06:36:56.506Z,6.32
2022-10-13T06:37:59.490Z,7.30
2022-10-13T06:39:02.539Z,7.15
2022-10-13T06:40:05.807Z,6.93
2022-10-13T06:41:08.692Z,6.62
2022-10-13T06:42:11.517Z,6.87
2022-10-13T06:43:14.620Z,6.70
2022-10-13T06:44:17.486Z,7.20
2022-10-13T06:45:20.351Z,6.12
2022-10-13T06:46:23.152Z,6.93
2022-10-13T06:47:26.188Z,6.70
2022-10-13T06:48:29.770Z,6.90
2022-10-13T06:49:32.656Z,7.18
2022-10-13T06:50:39.436Z,7.35
2022-10-13T06:51:45.074Z,7.53
2022-10-13T06:52:47.989Z,6.45
2022-10-13T06:53:51.260Z,7.40
2022-10-13T06:54:54.219Z,8.15
2022-10-13T06:55:59.589Z,8.15
2022-10-13T06:57:02.375Z,7.62
2022-10-13T06:58:05.174Z,8.73
2022-10-13T06:59:08.292Z,8.80
2022-10-13T07:00:11.762Z,8.80
2022-10-13T07:01:15.202Z,9.45
2022-10-13T07:02:18.420Z,8.85
2022-10-13T07:03:21.711Z,10.38
2022-10-13T07:04:26.124Z,10.45
2022-10-13T07:05:29.089Z,11.30
2022-10-13T07:06:31.947Z,11.30
2022-10-13T07:07:34.826Z,10.90
2022-10-13T07:08:37.884Z,10.52
2022-10-13T07:09:41.171Z,9.70
2022-10-13T07:10:44.011Z,10.15
2022-10-13T07:11:48.115Z,9.02
2022-10-13T07:12:51.234Z,9.98
2022-10-13T07:13:55.239Z,10.45
2022-10-13T07:14:58.216Z,9.95
2022-10-13T07:16:04.549Z,10.35
2022-10-13T07:17:07.614Z,10.55
2022-10-13T07:18:10.397Z,10.75
2022-10-13T07:19:13.223Z,10.75
2022-10-13T07:20:16.200Z,10.27
2022-10-13T07:21:19.440Z,10.18
2022-10-13T07:22:22.312Z,11.38
2022-10-13T07:23:25.713Z,11.27
2022-10-13T07:24:28.500Z,11.32
2022-10-13T07:25:31.653Z,10.32
2022-10-13T07:26:34.610Z,10.63
2022-10-13T07:27:38.521Z,10.85
2022-10-13T07:28:43.369Z,10.63
2022-10-13T07:29:46.344Z,11.10
2022-10-13T07:30:49.195Z,12.13
2022-10-13T07:31:52.085Z,12.27
2022-10-13T07:32:55.049Z,11.55
2022-10-13T07:33:59.766Z,10.57
2022-10-13T07:35:03.374Z,10.27
2022-10-13T07:36:07.198Z,10.60
2022-10-13T07:37:10.300Z,11.18
2022-10-13T07:38:13.699Z,10.20
2022-10-13T07:39:16.862Z,11.50
2022-10-13T07:40:19.774Z,11.07
2022-10-13T07:41:22.514Z,11.32
2022-10-13T07:42:25.266Z,12.35
2022-10-13T07:43:28.371Z,11.12
2022-10-13T07:44:31.428Z,11.00
2022-10-13T07:45:34.463Z,11.63
2022-10-13T07:46:37.221Z,10.82
2022-10-13T07:47:39.998Z,10.25
2022-10-13T07:48:43.004Z,10.20
2022-10-13T07:49:46.321Z,10.02
2022-10-13T07:50:49.185Z,10.32
2022-10-13T07:51:52.137Z,10.60
2022-10-13T07:52:55.076Z,10.82
2022-10-13T07:53:57.900Z,10.88
2022-10-13T07:55:00.783Z,10.75
2022-10-13T07:56:06.769Z,9.95
2022-10-13T07:57:09.647Z,11.20
2022-10-13T07:58:12.572Z,10.25
2022-10-13T07:59:15.435Z,10.35
2022-10-13T08:00:19.024Z,9.68
2022-10-13T08:01:21.839Z,10.45
2022-10-13T08:02:24.788Z,10.43
2022-10-13T08:03:28.607Z,11.07
2022-10-13T08:04:32.573Z,10.70
2022-10-13T08:05:38.164Z,9.82
2022-10-13T08:06:42.524Z,10.23
2022-10-13T08:07:45.788Z,9.45
2022-10-13T08:08:48.780Z,9.77
2022-10-13T08:09:51.652Z,10.00
2022-10-13T08:10:55.445Z,9.60
2022-10-13T08:12:00.956Z,9.63
2022-10-13T08:13:04.928Z,9.80
2022-10-13T08:14:07.646Z,9.00
2022-10-13T08:15:11.008Z,9.63
2022-10-13T08:16:14.157Z,9.32
2022-10-13T08:17:17.824Z,9.70
2022-10-13T08:18:20.815Z,9.63
2022-10-13T08:19:26.666Z,8.60
2022-10-13T08:20:40.998Z,9.23
2022-10-13T08:22:01.785Z,9.23
2022-10-13T08:23:04.988Z,9.48
2022-10-13T08:24:12.069Z,9.35
2022-10-13T08:25:14.998Z,9.50
2022-10-13T08:26:24.324Z,9.18
2022-10-13T08:27:47.646Z,9.85
2022-10-13T08:29:09.504Z,9.90
2022-10-13T08:30:14.460Z,9.07
2022-10-13T08:31:17.577Z,9.20
2022-10-13T08:32:22.520Z,8.45
2022-10-13T08:33:26.839Z,8.50
2022-10-13T08:34:29.740Z,8.13
2022-10-13T08:35:34.762Z,8.43
2022-10-13T08:36:39.215Z,8.50
2022-10-13T08:37:42.136Z,8.10
2022-10-13T08:38:45.846Z,7.95
2022-10-13T08:39:49.296Z,7.30
2022-10-13T08:40:52.430Z,7.32
2022-10-13T08:41:58.035Z,7.35
2022-10-13T08:43:00.877Z,6.90
2022-10-13T08:45:44.659Z,7.57
2022-10-13T08:46:58.308Z,7.80
2022-10-13T08:48:06.161Z,7.35
2022-10-13T08:49:09.036Z,7.20
2022-10-13T08:50:16.393Z,6.85
2022-10-13T08:51:19.714Z,7.00
2022-10-13T08:52:42.307Z,7.03
2022-10-13T08:53:47.289Z,6.78
2022-10-13T08:54:51.041Z,6.35
2022-10-13T08:56:23.095Z,7.03
2022-10-13T08:57:26.037Z,7.25
2022-10-13T08:58:33.015Z,8.00
2022-10-13T08:59:35.838Z,7.00
2022-10-13T09:00:38.827Z,7.40
2022-10-13T09:01:42.324Z,7.55
2022-10-13T09:02:45.995Z,7.07
2022-10-13T09:04:24.798Z,6.50
2022-10-13T09:05:43.784Z,6.37
2022-10-13T09:07:03.584Z,6.97
2022-10-13T09:08:16.566Z,7.10
2022-10-13T09:09:19.543Z,6.95
2022-10-13T09:10:22.382Z,6.90
2022-10-13T09:11:48.340Z,7.22
2022-10-13T09:12:51.874Z,6.90
2022-10-13T09:13:57.106Z,7.03
2022-10-13T09:15:06.595Z,6.75
2022-10-13T09:16:09.593Z,6.70
2022-10-13T09:17:26.852Z,7.05
2022-10-13T09:18:32.636Z,6.28
2022-10-13T09:19:36.813Z,6.43
2022-10-13T09:20:41.850Z,6.87
2022-10-13T09:21:44.892Z,7.60
2022-10-13T09:23:04.775Z,6.45
2022-10-13T09:24:13.932Z,7.55
2022-10-13T09:25:23.084Z,7.10
2022-10-13T09:26:26.220Z,8.35
2022-10-13T09:27:29.111Z,7.62
2022-10-13T09:28:32.743Z,7.53
2022-10-13T09:29:35.685Z,6.90
2022-10-13T09:30:45.049Z,7.05
2022-10-13T09:31:48.245Z,7.97
2022-10-13T09:32:51.579Z,7.10
2022-10-13T09:34:03.834Z,6.45
2022-10-13T09:35:22.015Z,7.15
2022-10-13T09:36:25.055Z,6.75
2022-10-13T09:37:28.373Z,7.57
2022-10-13T09:38:34.022Z,7.00
2022-10-13T09:39:36.788Z,7.00
2022-10-13T09:40:41.036Z,7.70
2022-10-13T09:41:44.573Z,7.57
2022-10-13T09:42:56.430Z,7.07
2022-10-13T09:44:06.175Z,7.70
2022-10-13T09:45:21.617Z,7.75
2022-10-13T09:46:27.518Z,7.50
2022-10-13T09:47:33.389Z,8.38
2022-10-13T09:48:37.803Z,7.82
2022-10-13T09:49:43.797Z,7.75
2022-10-13T09:50:52.390Z,8.13
2022-10-13T09:52:20.430Z,7.37
2022-10-13T09:53:40.330Z,7.35
2022-10-13T09:54:45.638Z,7.95
2022-10-13T09:55:49.882Z,7.87
2022-10-13T09:56:59.618Z,8.77
2022-10-13T09:58:15.023Z,7.55
2022-10-13T09:59:41.710Z,8.23
2022-10-13T10:00:45.677Z,8.02
2022-10-13T10:01:52.325Z,8.80
2022-10-13T10:03:05.108Z,8.65
2022-10-13T10:04:16.096Z,8.18
2022-10-13T10:05:26.180Z,9.40
2022-10-13T10:06:29.161Z,8.88
2022-10-13T10:07:33.361Z,9.18
2022-10-13T10:09:02.687Z,8.43
2022-10-13T10:10:19.116Z,8.15
2022-10-13T10:11:32.641Z,8.38
2022-10-13T10:12:40.982Z,8.63
2022-10-13T10:13:43.884Z,8.57
2022-10-13T10:14:49.159Z,8.98
2022-10-13T10:16:03.766Z,8.00
2022-10-13T10:17:30.740Z,9.73
2022-10-13T10:18:45.580Z,9.73
2022-10-13T10:19:57.419Z,9.73
2022-10-13T10:21:10.412Z,11.43
2022-10-13T10:22:31.962Z,11.35
2022-10-13T10:23:48.577Z,10.82
2022-10-13T10:25:08.348Z,10.10
2022-10-13T10:26:23.625Z,10.20
2022-10-13T10:27:43.570Z,9.60
2022-10-13T10:29:17.425Z,10.10
2022-10-13T10:30:21.440Z,10.25
2022-10-13T10:31:36.474Z,10.50
2022-10-13T10:32:54.321Z,9.68
2022-10-13T10:34:05.124Z,9.82
2022-10-13T10:35:40.444Z,9.73
2022-10-13T10:37:13.253Z,10.13
2022-10-13T10:38:16.072Z,9.88
2022-10-13T10:39:34.240Z,9.88
2022-10-13T10:41:01.904Z,10.68
2022-10-13T10:42:23.937Z,9.45
2022-10-13T10:43:38.536Z,9.13
2022-10-13T10:44:48.409Z,10.50
2022-10-13T10:45:51.295Z,9.73
2022-10-13T10:46:57.987Z,9.18
2022-10-13T10:48:13.323Z,10.45
2022-10-13T10:49:23.408Z,9.05
2022-10-13T10:50:27.014Z,9.25
2022-10-13T10:51:37.042Z,8.70
2022-10-13T10:53:09.863Z,8.98
2022-10-13T10:54:18.760Z,9.02
2022-10-13T10:55:32.687Z,9.20
2022-10-13T10:56:40.127Z,10.20
2022-10-13T10:58:24.918Z,9.50
2022-10-13T10:59:52.362Z,7.90
2022-10-13T11:01:29.502Z,8.73
2022-10-13T11:02:48.126Z,8.65
2022-10-13T11:04:21.816Z,8.60
2022-10-13T11:05:24.778Z,8.60
2022-10-13T11:06:38.510Z,8.85
2022-10-13T11:07:44.147Z,8.18
2022-10-13T11:08:49.006Z,8.02
2022-10-13T11:09:55.822Z,7.87
2022-10-13T11:11:24.866Z,7.75
2022-10-13T11:12:52.473Z,9.68
2022-10-13T11:14:07.877Z,8.43
2022-10-13T11:15:13.418Z,8.90
2022-10-13T11:16:33.558Z,9.02
2022-10-13T11:17:38.839Z,8.57
2022-10-13T11:19:29.271Z,8.98
2022-10-13T11:20:35.079Z,9.05
2022-10-13T11:21:52.981Z,9.43
2022-10-13T11:22:58.456Z,8.73
2022-10-13T11:24:02.340Z,8.40
2022-10-13T11:25:36.174Z,7.93
2022-10-13T11:26:43.843Z,7.90
2022-10-13T11:27:46.600Z,8.10
2022-10-13T11:28:50.567Z,8.32
2022-10-13T11:30:03.508Z,8.43
2022-10-13T11:31:23.937Z,8.40
2022-10-13T11:32:49.617Z,9.48
2022-10-13T11:33:56.147Z,8.35
2022-10-13T11:35:20.577Z,8.57
2022-10-13T11:36:34.578Z,8.25
2022-10-13T11:38:05.720Z,8.25
2022-10-13T11:39:41.038Z,7.97
2022-10-13T11:41:16.194Z,7.45
2022-10-13T11:42:35.329Z,7.95
2022-10-13T11:43:59.205Z,8.05
2022-10-13T11:45:12.383Z,8.88
2022-10-13T11:46:25.771Z,9.15
2022-10-13T11:48:02.280Z,8.52
2022-10-13T11:49:17.723Z,7.80
2022-10-13T11:51:04.085Z,7.85
2022-10-13T11:52:25.085Z,7.57
2022-10-13T11:53:39.977Z,8.02
2022-10-13T11:54:54.958Z,7.70
2022-10-13T11:55:59.649Z,8.82
2022-10-13T11:57:02.963Z,7.25
2022-10-13T11:58:28.968Z,7.30
2022-10-13T11:59:34.549Z,8.13
2022-10-13T12:00:37.453Z,8.30
2022-10-13T12:01:44.700Z,8.10
2022-10-13T12:02:52.738Z,7.68
2022-10-13T12:03:55.548Z,8.88
2022-10-13T12:05:08.501Z,8.40
2022-10-13T12:06:26.711Z,8.35
2022-10-13T12:07:37.084Z,8.27
2022-10-13T12:08:40.039Z,8.25
2022-10-13T12:09:56.305Z,7.70
2022-10-13T12:11:03.102Z,8.10
2022-10-13T12:12:16.686Z,7.60
2022-10-13T12:13:23.532Z,8.27
2022-10-13T12:14:43.476Z,7.25
2022-10-13T12:15:46.414Z,7.60
2022-10-13T12:18:03.470Z,7.80
2022-10-13T12:19:19.288Z,8.15
2022-10-13T12:20:28.674Z,8.60
2022-10-13T12:21:31.606Z,8.10
2022-10-13T12:22:40.292Z,9.00
2022-10-13T12:23:43.728Z,8.05
2022-10-13T12:25:04.695Z,8.35
2022-10-13T12:26:08.576Z,8.82
2022-10-13T12:27:25.451Z,9.13
2022-10-13T12:28:48.322Z,8.95
2022-10-13T12:29:51.421Z,9.73
2022-10-13T12:30:56.989Z,9.82
2022-10-13T12:31:59.845Z,9.48
2022-10-13T12:33:03.682Z,9.93
2022-10-13T12:34:28.235Z,9.55
2022-10-13T12:35:34.895Z,9.15
2022-10-13T12:36:37.769Z,9.10
2022-10-13T12:37:40.740Z,8.75
2022-10-13T12:38:49.319Z,8.73
2022-10-13T12:39:52.440Z,8.60
2022-10-13T12:41:01.443Z,8.75
2022-10-13T12:42:07.937Z,8.25
2022-10-13T12:43:20.914Z,8.43
2022-10-13T12:44:32.430Z,8.13
2022-10-13T12:45:35.791Z,8.00
2022-10-13T12:46:38.518Z,7.57
2022-10-13T12:47:44.374Z,9.00
2022-10-13T12:48:48.815Z,8.27
2022-10-13T12:49:51.680Z,8.43
2022-10-13T12:50:54.762Z,7.37
2022-10-13T12:52:09.558Z,7.90
2022-10-13T12:53:17.235Z,8.25
2022-10-13T12:54:27.313Z,7.85
2022-10-13T12:55:31.691Z,7.75
2022-10-13T12:56:35.019Z,7.32
2022-10-13T12:57:38.917Z,8.13
2022-10-13T12:58:43.964Z,8.52
2022-10-13T12:59:47.456Z,8.27
2022-10-13T13:01:09.502Z,8.60
2022-10-13T13:02:28.628Z,8.50
2022-10-13T13:03:31.715Z,8.68
2022-10-13T13:04:37.518Z,7.70
2022-10-13T13:05:49.211Z,9.40
2022-10-13T13:06:56.673Z,6.97
2022-10-13T13:08:00.497Z,8.15
2022-10-13T13:09:23.453Z,7.57
2022-10-13T13:10:26.876Z,7.57
2022-10-13T13:11:38.618Z,7.47
2022-10-13T13:12:42.557Z,7.75
2022-10-13T13:13:45.417Z,7.87
2022-10-13T13:14:51.301Z,8.27
2022-10-13T13:15:54.908Z,8.30
2022-10-13T13:17:11.372Z,7.07
2022-10-13T13:18:27.228Z,6.87
2022-10-13T13:19:33.050Z,7.35
2022-10-13T13:20:38.081Z,7.28
2022-10-13T13:21:41.234Z,6.28
2022-10-13T13:22:44.082Z,6.85
2022-10-13T13:23:52.873Z,7.20
2022-10-13T13:24:57.228Z,7.93
2022-10-13T13:26:17.318Z,8.23
2022-10-13T13:27:39.982Z,7.80
2022-10-13T13:28:45.159Z,7.70
2022-10-13T13:29:48.257Z,8.00
2022-10-13T13:30:51.243Z,8.30
2022-10-13T13:31:54.056Z,8.98
2022-10-13T13:32:56.808Z,7.85
2022-10-13T13:33:59.573Z,8.68
2022-10-13T13:35:02.511Z,7.95
2022-10-13T13:36:14.714Z,7.55
2022-10-13T13:37:26.767Z,7.95
2022-10-13T13:38:29.839Z,7.90
2022-10-13T13:39:33.232Z,8.10
2022-10-13T13:40:36.061Z,8.27
2022-10-13T13:41:39.072Z,9.52
2022-10-13T13:42:41.941Z,10.88
2022-10-13T13:43:44.836Z,9.68
2022-10-13T13:44:47.811Z,9.15
2022-10-13T13:47:02.556Z,8.27
2022-10-13T13:48:05.369Z,7.32
2022-10-13T13:49:10.821Z,7.85
2022-10-13T13:50:24.284Z,7.43
2022-10-13T13:51:30.688Z,8.32
2022-10-13T13:52:33.498Z,8.10
2022-10-13T13:53:36.971Z,7.57
2022-10-13T13:54:40.054Z,7.22
2022-10-13T13:55:45.284Z,7.32
2022-10-13T13:56:48.308Z,7.12
2022-10-13T13:57:51.509Z,7.53
2022-10-13T13:58:54.348Z,7.43
2022-10-13T13:59:57.049Z,7.47
2022-10-13T14:01:00.336Z,7.30
2022-10-13T14:02:04.062Z,7.90
2022-10-13T14:03:06.946Z,7.60
2022-10-13T14:04:09.668Z,8.10
2022-10-13T14:05:12.762Z,7.53
2022-10-13T14:06:20.637Z,7.87
2022-10-13T14:07:24.670Z,7.60
2022-10-13T14:08:35.412Z,8.50
2022-10-13T14:09:38.552Z,7.47
2022-10-13T14:10:41.511Z,7.10
2022-10-13T14:11:44.361Z,7.75
2022-10-13T14:12:47.665Z,9.85
2022-10-13T14:13:50.645Z,10.15
2022-10-13T14:14:53.534Z,8.35
2022-10-13T14:16:00.525Z,7.68
2022-10-13T14:17:04.517Z,7.03
2022-10-13T14:18:13.428Z,7.87
2022-10-13T14:19:16.411Z,7.30
2022-10-13T14:20:19.257Z,6.95
2022-10-13T14:21:22.050Z,8.43
2022-10-13T14:22:25.050Z,7.87
2022-10-13T14:23:28.143Z,7.30
2022-10-13T14:24:31.048Z,7.43
2022-10-13T14:25:34.030Z,8.07
2022-10-13T14:26:36.977Z,7.97
2022-10-13T14:27:39.868Z,8.45
2022-10-13T14:28:46.685Z,7.72
2022-10-13T14:29:49.474Z,7.62
2022-10-13T14:30:53.001Z,7.95
2022-10-13T14:31:56.011Z,7.60
2022-10-13T14:32:58.838Z,8.45
2022-10-13T14:34:01.668Z,8.38
2022-10-13T14:35:05.876Z,7.95
2022-10-13T14:36:09.215Z,7.30
2022-10-13T14:37:13.479Z,7.80
2022-10-13T14:38:16.426Z,8.85
2022-10-13T14:39:19.360Z,7.82
2022-10-13T14:40:22.112Z,7.60
2022-10-13T14:41:25.224Z,8.10
2022-10-13T14:42:28.125Z,7.43
2022-10-13T14:43:31.502Z,8.27
2022-10-13T14:44:34.293Z,8.63
2022-10-13T14:45:37.182Z,7.90
2022-10-13T14:46:41.408Z,7.95
2022-10-13T14:47:44.310Z,7.35
2022-10-13T14:48:47.312Z,7.40
2022-10-13T14:49:50.124Z,8.27
2022-10-13T14:50:53.004Z,7.53